Time;durP1;ratioP1;P1;durP2;ratioP2;P2;SDS_P1;SDS_P2;PMS_P1;PMS_P2;Temp;Humidity;BMP_temperature;BMP_pressure;BME280_temperature;BME280_humidity;BME280_pressure;Samples;Min_cycle;Max_cycle;Signal;HPM_P1;HPM_P2
2023/07/07 04:00:45;;;;;;;;;;;16.80;95.70;;;;;;7485923;23;1793;31
2023/07/07 04:03:48;;;;;;;;;;;16.90;95.40;;;;;;6105004;29;1462;-76
2023/07/07 04:06:50;;;;;;;;;;;16.80;95.30;;;;;;6107209;29;1131;-74
2023/07/07 04:09:52;;;;;;;;;;;16.70;95.10;;;;;;6115960;29;1561;-76
2023/07/07 04:12:54;;;;;;;;;;;16.40;95.40;;;;;;6130924;29;1497;-75
2023/07/07 04:16:00;;;;;;;;;;;16.20;95.90;;;;;;6130573;29;1015;-74
2023/07/07 04:19:04;;;;;;;;;;;16.40;96.20;;;;;;6127837;29;1474;-74
2023/07/07 04:22:05;;;;;;;;;;;16.50;96.60;;;;;;6130916;29;1883;-75
2023/07/07 04:25:08;;;;;;;;;;;16.60;96.10;;;;;;6129840;29;1780;-74
2023/07/07 04:28:10;;;;;;;;;;;16.60;96.10;;;;;;6117058;29;1450;-74
2023/07/07 04:31:13;;;;;;;;;;;16.60;95.90;;;;;;6106268;29;1051;-75
2023/07/07 04:34:18;;;;;;;;;;;16.70;95.60;;;;;;6105287;29;1043;-73
2023/07/07 04:37:20;;;;;;;;;;;16.60;95.70;;;;;;6105265;29;1461;-74
2023/07/07 04:40:21;;;;;;;;;;;16.60;96.00;;;;;;6106085;29;1985;-75
2023/07/07 04:43:23;;;;;;;;;;;16.70;95.90;;;;;;6105984;29;1012;-76
2023/07/07 04:46:26;;;;;;;;;;;16.70;96.00;;;;;;6105737;29;1025;-75
2023/07/07 04:49:29;;;;;;;;;;;16.80;95.90;;;;;;6105877;29;1035;-76
2023/07/07 04:52:31;;;;;;;;;;;16.80;95.80;;;;;;6105913;29;1048;-76
2023/07/07 04:55:32;;;;;;;;;;;16.80;95.90;;;;;;6105826;29;1085;-75
2023/07/07 04:58:34;;;;;;;;;;;16.80;96.40;;;;;;6105976;29;1103;-76
2023/07/07 05:01:37;;;;;;;;;;;16.80;96.40;;;;;;6114677;29;1979;-75
2023/07/07 05:04:40;;;;;;;;;;;16.40;97.50;;;;;;6129404;29;1004;-75
2023/07/07 05:07:41;;;;;;;;;;;16.50;97.70;;;;;;6132854;29;1048;-75
2023/07/07 05:10:47;;;;;;;;;;;16.80;97.40;;;;;;6131370;29;1063;-75
2023/07/07 05:13:50;;;;;;;;;;;16.70;96.80;;;;;;6129140;29;1020;-74
2023/07/07 05:16:53;;;;;;;;;;;16.90;97.10;;;;;;6128689;29;1171;-74
2023/07/07 05:19:56;;;;;;;;;;;17.00;96.40;;;;;;6129125;29;1981;-76
2023/07/07 05:22:58;;;;;;;;;;;17.00;96.50;;;;;;6128971;29;1047;-75
2023/07/07 05:26:00;;;;;;;;;;;17.20;96.30;;;;;;6128893;29;1091;-75
2023/07/07 05:29:04;;;;;;;;;;;17.30;96.20;;;;;;6128958;29;1052;-74
2023/07/07 05:32:06;;;;;;;;;;;17.40;95.90;;;;;;6128836;29;1004;-76
2023/07/07 05:35:10;;;;;;;;;;;17.40;95.80;;;;;;6128636;29;1064;-75
2023/07/07 05:38:11;;;;;;;;;;;17.50;95.30;;;;;;6128959;29;1160;-77
2023/07/07 05:41:13;;;;;;;;;;;17.50;95.10;;;;;;6128956;29;1985;-77
2023/07/07 05:44:15;;;;;;;;;;;17.60;95.40;;;;;;6129075;29;1047;-77
2023/07/07 05:47:16;;;;;;;;;;;17.50;95.10;;;;;;6133184;29;1052;-75
2023/07/07 05:50:19;;;;;;;;;;;17.50;94.80;;;;;;6132837;29;1596;-75
2023/07/07 05:53:21;;;;;;;;;;;17.50;95.00;;;;;;6133489;29;1104;-76
2023/07/07 05:56:25;;;;;;;;;;;17.50;95.20;;;;;;6133566;29;996;-76
2023/07/07 05:59:26;;;;;;;;;;;17.60;95.20;;;;;;6133411;29;1092;-74
2023/07/07 06:02:28;;;;;;;;;;;17.60;95.20;;;;;;6133028;29;1907;-75
2023/07/07 06:05:31;;;;;;;;;;;17.60;95.40;;;;;;6133304;29;1080;-75
2023/07/07 06:08:33;;;;;;;;;;;17.70;95.50;;;;;;6133116;29;1096;-77
2023/07/07 06:11:35;;;;;;;;;;;17.80;95.60;;;;;;6133177;29;1132;-75
2023/07/07 06:14:36;;;;;;;;;;;17.90;95.60;;;;;;6132876;29;1051;-77
2023/07/07 06:17:38;;;;;;;;;;;18.00;95.30;;;;;;6133028;29;1084;-73
2023/07/07 06:20:41;;;;;;;;;;;18.10;95.00;;;;;;6132734;29;1977;-74
2023/07/07 06:23:43;;;;;;;;;;;18.00;95.00;;;;;;6132599;29;1480;-74
2023/07/07 06:26:44;;;;;;;;;;;18.10;95.10;;;;;;6132235;29;807;-74
2023/07/07 06:29:46;;;;;;;;;;;18.20;95.40;;;;;;6132585;29;1037;-75
2023/07/07 06:32:48;;;;;;;;;;;18.30;95.30;;;;;;6132652;29;1060;-76
2023/07/07 06:35:51;;;;;;;;;;;18.30;94.80;;;;;;6131772;29;1092;-73
2023/07/07 06:38:53;;;;;;;;;;;18.30;95.00;;;;;;6133025;29;1095;-76
2023/07/07 06:41:54;;;;;;;;;;;18.20;95.60;;;;;;6132678;29;1976;-76
2023/07/07 06:44:56;;;;;;;;;;;18.30;95.60;;;;;;6133029;29;906;-75
2023/07/07 06:47:58;;;;;;;;;;;18.50;95.20;;;;;;6132268;29;1350;-77
2023/07/07 06:51:01;;;;;;;;;;;18.50;94.90;;;;;;6132124;29;1101;-76
2023/07/07 06:54:03;;;;;;;;;;;18.70;94.90;;;;;;6131942;29;1099;-76
2023/07/07 06:57:06;;;;;;;;;;;18.80;95.00;;;;;;6131010;29;1068;-74
2023/07/07 07:00:09;;;;;;;;;;;18.80;94.40;;;;;;6131820;29;1137;-74
2023/07/07 07:03:10;;;;;;;;;;;18.80;94.30;;;;;;6131615;29;1907;-76
2023/07/07 07:06:14;;;;;;;;;;;18.80;94.40;;;;;;6132058;29;1071;-76
2023/07/07 07:09:16;;;;;;;;;;;18.80;94.10;;;;;;6131551;29;1098;-76
2023/07/07 07:12:18;;;;;;;;;;;18.90;94.50;;;;;;6131925;29;1144;-74
2023/07/07 07:15:20;;;;;;;;;;;19.10;94.60;;;;;;6131604;29;1156;-75
2023/07/07 07:18:21;;;;;;;;;;;19.10;94.20;;;;;;6131866;29;1020;-73
2023/07/07 07:21:24;;;;;;;;;;;19.30;94.20;;;;;;6131373;29;1906;-74
2023/07/07 07:24:26;;;;;;;;;;;19.30;93.70;;;;;;6131665;29;1024;-75
2023/07/07 07:27:28;;;;;;;;;;;19.40;94.00;;;;;;6132126;29;1021;-75
2023/07/07 07:30:30;;;;;;;;;;;19.40;93.80;;;;;;6134537;29;1826;-75
2023/07/07 07:33:32;;;;;;;;;;;19.50;94.00;;;;;;6136190;29;1076;-74
2023/07/07 07:36:35;;;;;;;;;;;19.60;93.90;;;;;;6135661;29;1087;-75
2023/07/07 07:39:37;;;;;;;;;;;19.70;93.50;;;;;;6136411;29;1032;-75
2023/07/07 07:42:38;;;;;;;;;;;19.80;93.60;;;;;;6136507;29;1883;-76
2023/07/07 07:45:40;;;;;;;;;;;19.80;93.30;;;;;;6131386;29;1004;-76
2023/07/07 07:48:42;;;;;;;;;;;19.90;93.40;;;;;;6131478;29;1064;-75
2023/07/07 07:51:47;;;;;;;;;;;20.00;93.40;;;;;;6131306;29;1028;-75
2023/07/07 07:54:48;;;;;;;;;;;20.10;93.30;;;;;;6130753;29;1187;-75
2023/07/07 07:57:50;;;;;;;;;;;20.10;93.00;;;;;;6130659;29;1039;-74
2023/07/07 08:00:52;;;;;;;;;;;20.20;93.10;;;;;;6133383;29;1902;-75
2023/07/07 08:03:54;;;;;;;;;;;20.30;92.70;;;;;;6131249;29;1218;-76
2023/07/07 08:06:57;;;;;;;;;;;20.40;92.50;;;;;;6132283;29;1044;-75
2023/07/07 08:09:59;;;;;;;;;;;20.40;92.70;;;;;;6130236;29;1108;-75
2023/07/07 08:13:00;;;;;;;;;;;20.60;92.50;;;;;;6130269;29;1011;-73
2023/07/07 08:16:02;;;;;;;;;;;20.60;92.00;;;;;;6130419;29;1032;-73
2023/07/07 08:19:04;;;;;;;;;;;20.70;91.50;;;;;;6129800;29;1025;-75
2023/07/07 08:22:08;;;;;;;;;;;20.70;91.70;;;;;;6129967;29;1902;-76
2023/07/07 08:25:11;;;;;;;;;;;20.80;91.30;;;;;;6129766;29;1159;-75
2023/07/07 08:28:13;;;;;;;;;;;20.90;91.30;;;;;;6129930;29;1053;-75
2023/07/07 08:31:15;;;;;;;;;;;21.10;90.70;;;;;;6129729;29;1104;-75
2023/07/07 08:34:17;;;;;;;;;;;21.30;90.70;;;;;;6129468;29;1047;-74
2023/07/07 08:37:21;;;;;;;;;;;21.30;90.70;;;;;;6129949;29;1087;-75
2023/07/07 08:40:24;;;;;;;;;;;21.40;90.70;;;;;;6129611;29;1052;-75
2023/07/07 08:43:28;;;;;;;;;;;21.50;90.50;;;;;;6129407;29;1906;-73
2023/07/07 08:46:40;;;;;;;;;;;21.60;90.20;;;;;;6129729;29;1180;-75
2023/07/07 08:49:51;;;;;;;;;;;21.70;89.60;;;;;;6129570;29;1175;-75
2023/07/07 08:52:58;;;;;;;;;;;21.80;89.50;;;;;;6130008;29;1040;-74
2023/07/07 08:56:06;;;;;;;;;;;21.90;89.30;;;;;;6129556;29;1009;-74
2023/07/07 08:59:17;;;;;;;;;;;22.10;89.00;;;;;;6129349;29;1093;-74
2023/07/07 09:02:32;;;;;;;;;;;22.10;88.50;;;;;;6129158;29;1981;-75
2023/07/07 09:05:45;;;;;;;;;;;22.20;87.50;;;;;;6129222;29;1043;-75
2023/07/07 09:08:52;;;;;;;;;;;22.50;87.30;;;;;;6129736;29;1087;-75
2023/07/07 09:12:01;;;;;;;;;;;22.70;86.10;;;;;;6129980;29;963;-76
2023/07/07 09:15:11;;;;;;;;;;;22.80;86.10;;;;;;6129598;29;1012;-76
2023/07/07 09:18:18;;;;;;;;;;;22.80;85.00;;;;;;6129613;29;1080;-74
2023/07/07 09:21:28;;;;;;;;;;;22.90;84.50;;;;;;6132991;29;1902;-74
2023/07/07 09:24:36;;;;;;;;;;;22.90;84.50;;;;;;6134105;29;1103;-75
2023/07/07 09:27:41;;;;;;;;;;;23.10;83.30;;;;;;6133821;29;1031;-75
2023/07/07 09:30:46;;;;;;;;;;;23.20;82.70;;;;;;6133725;29;1135;-76
2023/07/07 09:33:49;;;;;;;;;;;23.30;80.90;;;;;;6133803;29;1260;-74
2023/07/07 09:36:58;;;;;;;;;;;23.50;81.50;;;;;;6133780;29;1066;-78
2023/07/07 09:40:16;;;;;;;;;;;23.50;79.20;;;;;;6133587;29;1138;-74
2023/07/07 09:43:23;;;;;;;;;;;23.60;77.70;;;;;;6133869;29;1927;-76
2023/07/07 09:46:31;;;;;;;;;;;23.60;76.70;;;;;;6133361;29;1096;-73
2023/07/07 09:49:39;;;;;;;;;;;23.90;75.20;;;;;;6133810;29;1036;-74
2023/07/07 09:52:45;;;;;;;;;;;23.90;74.00;;;;;;6133356;29;1088;-77
2023/07/07 09:55:48;;;;;;;;;;;24.00;72.20;;;;;;6133523;29;1040;-74
2023/07/07 09:58:53;;;;;;;;;;;24.20;67.60;;;;;;6133077;29;1051;-74
2023/07/07 10:01:56;;;;;;;;;;;24.40;65.80;;;;;;6133008;29;1982;-75
2023/07/07 10:04:59;;;;;;;;;;;24.50;64.50;;;;;;6133315;29;1027;-75
2023/07/07 10:08:02;;;;;;;;;;;24.50;62.70;;;;;;6115768;29;1136;-75
2023/07/07 10:11:21;;;;;;;;;;;24.60;62.30;;;;;;6132815;29;1299;-74
2023/07/07 10:14:23;;;;;;;;;;;24.70;61.10;;;;;;6133166;29;1034;-74
2023/07/07 10:17:31;;;;;;;;;;;24.90;61.40;;;;;;6133019;29;1075;-73
2023/07/07 10:20:33;;;;;;;;;;;25.10;60.90;;;;;;6132773;29;1067;-74
2023/07/07 10:23:34;;;;;;;;;;;25.20;61.00;;;;;;6133423;29;1989;-74
2023/07/07 10:26:38;;;;;;;;;;;25.30;59.70;;;;;;6133128;29;1216;-75
2023/07/07 10:29:42;;;;;;;;;;;25.30;59.90;;;;;;6133190;29;1154;-75
2023/07/07 10:32:44;;;;;;;;;;;25.30;59.10;;;;;;6132709;29;1067;-75
2023/07/07 10:35:46;;;;;;;;;;;25.40;58.60;;;;;;6133413;29;1263;-76
2023/07/07 10:38:47;;;;;;;;;;;25.50;58.20;;;;;;6132959;29;1124;-76
2023/07/07 10:41:50;;;;;;;;;;;25.50;59.30;;;;;;6133495;29;1902;-75
2023/07/07 10:44:53;;;;;;;;;;;25.50;57.80;;;;;;6137175;29;1032;-74
2023/07/07 10:47:55;;;;;;;;;;;25.60;57.30;;;;;;6141849;29;1068;-75
2023/07/07 10:51:02;;;;;;;;;;;25.60;56.60;;;;;;6135007;29;1032;-74
2023/07/07 10:54:12;;;;;;;;;;;25.60;58.50;;;;;;6132595;29;1083;-74
2023/07/07 10:57:22;;;;;;;;;;;25.90;57.70;;;;;;6131934;29;1037;-75
2023/07/07 11:00:33;;;;;;;;;;;26.00;58.00;;;;;;6131721;29;1099;-74
2023/07/07 11:03:49;;;;;;;;;;;26.10;57.00;;;;;;6131280;29;1964;-74
2023/07/07 11:06:59;;;;;;;;;;;26.20;57.10;;;;;;6131482;29;1062;-74
2023/07/07 11:10:14;;;;;;;;;;;26.30;56.60;;;;;;6134008;29;985;-75
2023/07/07 11:13:21;;;;;;;;;;;26.40;56.90;;;;;;6131649;29;1132;-75
2023/07/07 11:16:31;;;;;;;;;;;26.50;56.30;;;;;;6131217;29;1095;-74
2023/07/07 11:19:51;;;;;;;;;;;26.40;54.50;;;;;;6130514;29;1820;-74
2023/07/07 11:23:08;;;;;;;;;;;26.40;54.10;;;;;;6125460;29;1902;-73
2023/07/07 11:26:17;;;;;;;;;;;26.40;53.50;;;;;;6131267;29;1019;-73
2023/07/07 11:29:25;;;;;;;;;;;26.40;52.50;;;;;;6130823;29;1090;-73
2023/07/07 11:32:33;;;;;;;;;;;26.40;54.10;;;;;;6141386;29;1507;-76
2023/07/07 11:35:47;;;;;;;;;;;26.60;55.30;;;;;;6154478;29;1114;-73
2023/07/07 11:38:59;;;;;;;;;;;26.90;54.90;;;;;;6154795;29;1010;-74
2023/07/07 11:42:12;;;;;;;;;;;26.90;53.80;;;;;;6143767;28;1985;-72
2023/07/07 11:45:21;;;;;;;;;;;26.90;55.50;;;;;;6129562;29;1534;-74
2023/07/07 11:48:33;;;;;;;;;;;27.00;53.60;;;;;;6130419;29;1489;-73
2023/07/07 11:51:44;;;;;;;;;;;27.10;52.00;;;;;;6129604;29;1394;-76
2023/07/07 11:55:01;;;;;;;;;;;27.10;52.00;;;;;;6130340;29;1093;-75
2023/07/07 11:58:12;;;;;;;;;;;27.20;52.90;;;;;;6130853;29;1112;-76
2023/07/07 12:01:19;;;;;;;;;;;27.30;51.90;;;;;;6131264;29;1574;-76
2023/07/07 12:04:25;;;;;;;;;;;27.40;52.40;;;;;;6147310;29;1906;-77
2023/07/07 12:07:31;;;;;;;;;;;27.60;51.90;;;;;;6141953;29;1495;-78
2023/07/07 12:10:38;;;;;;;;;;;27.80;51.80;;;;;;6132985;29;1778;-78
2023/07/07 12:13:46;;;;;;;;;;;27.80;50.00;;;;;;6110206;29;1007;-76
2023/07/07 12:16:51;;;;;;;;;;;27.80;50.70;;;;;;6112231;29;1069;-76
2023/07/07 12:19:57;;;;;;;;;;;28.00;49.90;;;;;;6110856;29;1495;-78
2023/07/07 12:23:00;;;;;;;;;;;27.90;49.80;;;;;;6149047;29;1903;-77
2023/07/07 12:26:08;;;;;;;;;;;28.00;49.10;;;;;;6148171;29;1028;-78
2023/07/07 12:29:11;;;;;;;;;;;28.10;48.40;;;;;;6149898;29;993;-75
2023/07/07 12:32:15;;;;;;;;;;;28.20;47.70;;;;;;6140994;29;1357;-77
2023/07/07 12:35:18;;;;;;;;;;;28.50;50.00;;;;;;6150045;29;1123;-78
2023/07/07 12:38:25;;;;;;;;;;;28.80;49.90;;;;;;6144178;29;1451;-76
2023/07/07 12:41:28;;;;;;;;;;;28.80;48.00;;;;;;6119085;29;1351;-76
2023/07/07 12:44:30;;;;;;;;;;;28.70;48.40;;;;;;6146158;29;1949;-77
2023/07/07 12:47:37;;;;;;;;;;;29.00;48.30;;;;;;6129396;29;1101;-76
2023/07/07 12:50:42;;;;;;;;;;;28.80;47.10;;;;;;6129084;29;1100;-79
2023/07/07 12:53:45;;;;;;;;;;;28.90;47.80;;;;;;6128168;29;1423;-75
2023/07/07 12:57:00;;;;;;;;;;;29.00;48.20;;;;;;6150541;29;1430;-79
2023/07/07 13:00:28;;;;;;;;;;;29.20;47.40;;;;;;6148111;29;1381;-77
2023/07/07 13:03:31;;;;;;;;;;;29.40;47.50;;;;;;6149013;29;1902;-78
2023/07/07 13:06:35;;;;;;;;;;;29.40;45.90;;;;;;6152664;29;1129;-78
2023/07/07 13:09:46;;;;;;;;;;;29.50;46.10;;;;;;6152773;29;1040;-79
2023/07/07 13:12:48;;;;;;;;;;;29.50;46.20;;;;;;6152670;29;1102;-77
2023/07/07 13:15:50;;;;;;;;;;;29.50;45.40;;;;;;6150540;29;1411;-79
2023/07/07 13:18:54;;;;;;;;;;;29.40;44.50;;;;;;6141236;29;1524;-77
2023/07/07 13:21:58;;;;;;;;;;;29.60;45.60;;;;;;6152542;29;1973;-78
2023/07/07 13:25:05;;;;;;;;;;;29.70;46.70;;;;;;6150841;29;1460;-76
2023/07/07 13:28:11;;;;;;;;;;;29.70;44.70;;;;;;6151073;29;1420;-76
2023/07/07 13:31:15;;;;;;;;;;;29.80;44.70;;;;;;6152408;29;1151;-77
2023/07/07 13:34:19;;;;;;;;;;;29.90;44.30;;;;;;6150374;29;1627;-79
2023/07/07 13:37:21;;;;;;;;;;;29.90;44.40;;;;;;6139909;29;1511;-79
2023/07/07 13:40:23;;;;;;;;;;;30.10;43.80;;;;;;6127347;29;1495;-75
2023/07/07 13:43:28;;;;;;;;;;;30.20;43.80;;;;;;6127749;29;1956;-77
2023/07/07 13:46:31;;;;;;;;;;;30.30;44.00;;;;;;6128269;29;1262;-77
2023/07/07 13:49:34;;;;;;;;;;;30.40;43.40;;;;;;6127981;29;1386;-77
2023/07/07 13:52:42;;;;;;;;;;;30.30;43.30;;;;;;6146488;29;1592;-77
2023/07/07 13:55:48;;;;;;;;;;;30.40;44.00;;;;;;6152239;29;1101;-73
2023/07/07 13:58:52;;;;;;;;;;;30.50;43.60;;;;;;6152123;29;1016;-79
2023/07/07 14:01:54;;;;;;;;;;;30.70;43.60;;;;;;6133230;29;1416;-79
2023/07/07 14:05:01;;;;;;;;;;;30.30;42.40;;;;;;6128419;29;1899;-81
2023/07/07 14:08:07;;;;;;;;;;;30.40;42.90;;;;;;6132928;29;1032;-79
2023/07/07 14:11:17;;;;;;;;;;;30.30;42.70;;;;;;6132276;29;1448;-83
2023/07/07 14:14:20;;;;;;;;;;;30.80;43.70;;;;;;6138547;29;1427;-76
2023/07/07 14:17:27;;;;;;;;;;;31.00;43.50;;;;;;6134747;29;2111;-78
2023/07/07 14:20:35;;;;;;;;;;;31.10;42.30;;;;;;6130534;29;1764;-76
2023/07/07 14:23:40;;;;;;;;;;;31.20;41.80;;;;;;6132115;29;2353;-76
2023/07/07 14:26:41;;;;;;;;;;;31.10;42.60;;;;;;6132039;29;1717;-79
2023/07/07 14:29:44;;;;;;;;;;;31.30;41.90;;;;;;6156115;29;1054;-78
2023/07/07 14:32:47;;;;;;;;;;;31.40;42.30;;;;;;6151005;29;1819;-77
2023/07/07 14:35:54;;;;;;;;;;;31.20;41.00;;;;;;6140609;29;2293;-79
2023/07/07 14:38:58;;;;;;;;;;;31.10;41.30;;;;;;6151376;29;1791;-76
2023/07/07 14:42:15;;;;;;;;;;;31.40;41.40;;;;;;6151711;29;1756;-77
2023/07/07 14:45:24;;;;;;;;;;;31.50;41.60;;;;;;6155614;29;1875;-78
2023/07/07 14:48:29;;;;;;;;;;;31.60;42.70;;;;;;6149127;29;1685;-78
2023/07/07 14:51:43;;;;;;;;;;;31.80;41.60;;;;;;6132185;29;1792;-78
2023/07/07 14:54:45;;;;;;;;;;;31.90;41.70;;;;;;6131926;29;1072;-78
2023/07/07 14:57:50;;;;;;;;;;;31.80;41.70;;;;;;6135137;29;1773;-77
2023/07/07 15:01:03;;;;;;;;;;;31.80;41.90;;;;;;6150806;29;1771;-77
2023/07/07 15:04:13;;;;;;;;;;;31.80;40.80;;;;;;6155357;29;1907;-79
2023/07/07 15:07:20;;;;;;;;;;;31.80;41.20;;;;;;6153716;29;1985;-77
2023/07/07 15:10:22;;;;;;;;;;;32.00;41.30;;;;;;6154177;29;1512;-78
2023/07/07 15:13:23;;;;;;;;;;;32.20;41.40;;;;;;6155132;29;1020;-78
2023/07/07 15:16:26;;;;;;;;;;;32.30;41.10;;;;;;6145672;29;2628;-78
2023/07/07 15:19:28;;;;;;;;;;;32.30;40.90;;;;;;6131127;29;2461;-79
2023/07/07 15:22:31;;;;;;;;;;;32.40;40.70;;;;;;6138983;29;2464;-80
2023/07/07 15:25:33;;;;;;;;;;;32.40;40.30;;;;;;6144406;29;1941;-80
2023/07/07 15:28:34;;;;;;;;;;;32.30;40.40;;;;;;6130784;29;2271;-81
2023/07/07 15:31:36;;;;;;;;;;;32.20;40.30;;;;;;6130742;29;1111;-81
2023/07/07 15:34:38;;;;;;;;;;;32.50;40.60;;;;;;6130063;29;1741;-81
2023/07/07 15:37:42;;;;;;;;;;;32.70;40.90;;;;;;6107447;29;1167;-79
2023/07/07 15:40:44;;;;;;;;;;;32.80;40.70;;;;;;6107139;29;1099;-82
2023/07/07 15:43:46;;;;;;;;;;;32.80;40.50;;;;;;6107164;29;1903;-81
2023/07/07 15:46:47;;;;;;;;;;;32.80;40.70;;;;;;6141840;29;1808;-80
2023/07/07 15:49:49;;;;;;;;;;;32.90;40.50;;;;;;6152603;29;1755;-82
2023/07/07 15:52:52;;;;;;;;;;;33.00;40.00;;;;;;6154453;29;1087;-80
2023/07/07 15:55:54;;;;;;;;;;;33.00;40.40;;;;;;6139851;29;1804;-82
2023/07/07 15:58:56;;;;;;;;;;;33.00;39.50;;;;;;6129793;29;1126;-81
2023/07/07 16:01:58;;;;;;;;;;;33.10;39.50;;;;;;6129399;29;1240;-82
2023/07/07 16:04:59;;;;;;;;;;;33.20;39.80;;;;;;6127912;29;2633;-82
2023/07/07 16:08:02;;;;;;;;;;;33.30;40.80;;;;;;6132394;29;2625;-81
2023/07/07 16:11:12;;;;;;;;;;;33.30;39.90;;;;;;6133154;29;2630;-78
2023/07/07 16:14:15;;;;;;;;;;;33.20;39.40;;;;;;6129739;29;1114;-78
2023/07/07 16:17:18;;;;;;;;;;;33.30;40.30;;;;;;6145861;29;1733;-80
2023/07/07 16:20:22;;;;;;;;;;;33.40;39.90;;;;;;6153750;29;1047;-77
2023/07/07 16:23:25;;;;;;;;;;;33.50;40.00;;;;;;6146439;29;2661;-78
2023/07/07 16:26:29;;;;;;;;;;;33.60;39.80;;;;;;6139498;29;1753;-80
2023/07/07 16:29:31;;;;;;;;;;;33.80;40.00;;;;;;6154007;28;1100;-77
2023/07/07 16:32:33;;;;;;;;;;;34.10;39.50;;;;;;6146687;29;1288;-76
2023/07/07 16:35:35;;;;;;;;;;;33.90;39.60;;;;;;6131180;29;1733;-78
2023/07/07 16:38:38;;;;;;;;;;;33.80;39.00;;;;;;6153056;29;1152;-78
2023/07/07 16:41:40;;;;;;;;;;;33.90;39.00;;;;;;6151076;29;1759;-80
2023/07/07 16:44:42;;;;;;;;;;;34.00;39.40;;;;;;6153252;29;1985;-77
2023/07/07 16:47:44;;;;;;;;;;;34.10;39.20;;;;;;6143880;29;1665;-78
2023/07/07 16:50:48;;;;;;;;;;;34.10;38.80;;;;;;6140056;29;1555;-79
2023/07/07 16:53:51;;;;;;;;;;;34.10;39.00;;;;;;6153664;29;1249;-78
2023/07/07 16:56:53;;;;;;;;;;;34.20;39.40;;;;;;6153694;29;1102;-78
2023/07/07 16:59:55;;;;;;;;;;;34.20;39.40;;;;;;6148254;29;2836;-82
2023/07/07 17:02:56;;;;;;;;;;;34.30;39.30;;;;;;6137245;29;1997;-80
2023/07/07 17:05:58;;;;;;;;;;;34.30;39.20;;;;;;6154123;29;1144;-81
2023/07/07 17:09:04;;;;;;;;;;;34.30;39.20;;;;;;6153777;29;1177;-84
2023/07/07 17:12:10;;;;;;;;;;;34.50;39.20;;;;;;6134714;29;1724;-83
2023/07/07 17:15:13;;;;;;;;;;;34.50;39.30;;;;;;6129736;29;1143;-82
2023/07/07 17:18:14;;;;;;;;;;;34.60;39.50;;;;;;6129728;29;1060;-81
2023/07/07 17:21:16;;;;;;;;;;;34.50;39.10;;;;;;6129528;29;1034;-77
2023/07/07 17:24:19;;;;;;;;;;;34.50;39.50;;;;;;6129059;29;1903;-78
2023/07/07 17:27:21;;;;;;;;;;;34.50;39.30;;;;;;6143467;29;1889;-78
2023/07/07 17:30:24;;;;;;;;;;;34.60;39.40;;;;;;6153273;29;1034;-75
2023/07/07 17:33:26;;;;;;;;;;;34.30;39.00;;;;;;6139270;29;1803;-78
2023/07/07 17:36:30;;;;;;;;;;;34.40;39.20;;;;;;6129628;29;1087;-75
2023/07/07 17:39:33;;;;;;;;;;;34.20;39.10;;;;;;6141690;28;1674;-77
2023/07/07 17:42:34;;;;;;;;;;;34.40;38.80;;;;;;6140010;29;1815;-77
2023/07/07 17:45:36;;;;;;;;;;;34.50;38.90;;;;;;6133585;29;1960;-78
2023/07/07 17:48:38;;;;;;;;;;;34.40;39.00;;;;;;6140034;29;1797;-80
2023/07/07 17:51:39;;;;;;;;;;;34.40;39.20;;;;;;6155388;29;1839;-75
2023/07/07 17:54:42;;;;;;;;;;;34.50;40.00;;;;;;6152581;29;1781;-79
2023/07/07 17:57:45;;;;;;;;;;;34.60;40.10;;;;;;6132910;29;1748;-78
2023/07/07 18:00:47;;;;;;;;;;;34.60;40.10;;;;;;6140930;29;1579;-78
2023/07/07 18:03:50;;;;;;;;;;;34.40;39.90;;;;;;6147798;29;2332;-75
2023/07/07 18:06:53;;;;;;;;;;;34.30;40.10;;;;;;6155862;29;1736;-77
2023/07/07 18:09:56;;;;;;;;;;;34.40;40.50;;;;;;6138848;29;1740;-78
2023/07/07 18:12:58;;;;;;;;;;;34.50;40.70;;;;;;6152562;29;2050;-76
2023/07/07 18:15:59;;;;;;;;;;;34.50;41.10;;;;;;6119467;29;1226;-75
2023/07/07 18:19:01;;;;;;;;;;;34.50;41.40;;;;;;6133002;29;1096;-77
2023/07/07 18:22:10;;;;;;;;;;;34.50;41.60;;;;;;6132122;29;1736;-75
2023/07/07 18:25:13;;;;;;;;;;;34.50;41.20;;;;;;6145249;29;1975;-76
2023/07/07 18:28:14;;;;;;;;;;;34.30;41.70;;;;;;6155795;29;1147;-75
2023/07/07 18:31:25;;;;;;;;;;;34.20;41.40;;;;;;6156890;29;1990;-75
2023/07/07 18:34:26;;;;;;;;;;;34.00;41.30;;;;;;6156490;29;1067;-77
2023/07/07 18:37:28;;;;;;;;;;;34.00;41.80;;;;;;6156530;29;1026;-78
2023/07/07 18:40:33;;;;;;;;;;;33.80;41.90;;;;;;6156047;29;1083;-77
2023/07/07 18:43:35;;;;;;;;;;;33.60;42.00;;;;;;6156814;29;1984;-75
2023/07/07 18:46:37;;;;;;;;;;;33.60;42.70;;;;;;6156326;29;1029;-76
2023/07/07 18:49:38;;;;;;;;;;;33.40;43.00;;;;;;6156438;29;1040;-76
2023/07/07 18:52:40;;;;;;;;;;;33.30;43.40;;;;;;6154972;28;1306;-78
2023/07/07 18:55:44;;;;;;;;;;;33.20;43.80;;;;;;6156267;29;1035;-76
2023/07/07 18:58:46;;;;;;;;;;;32.90;44.30;;;;;;6137796;29;1501;-78
2023/07/07 19:01:48;;;;;;;;;;;32.80;44.30;;;;;;6130572;29;2168;-76
2023/07/07 19:04:50;;;;;;;;;;;32.60;44.50;;;;;;6128695;29;1978;-77
2023/07/07 19:07:53;;;;;;;;;;;32.40;45.40;;;;;;6137522;29;1540;-76
2023/07/07 19:10:56;;;;;;;;;;;32.20;45.60;;;;;;6129446;29;1519;-78
2023/07/07 19:13:57;;;;;;;;;;;32.00;45.70;;;;;;6152225;29;1057;-78
2023/07/07 19:16:59;;;;;;;;;;;31.80;46.20;;;;;;6148264;29;1432;-76
2023/07/07 19:20:03;;;;;;;;;;;31.60;46.60;;;;;;6141449;29;1615;-77
2023/07/07 19:23:09;;;;;;;;;;;31.40;46.50;;;;;;6152093;29;1043;-76
2023/07/07 19:26:18;;;;;;;;;;;31.30;46.90;;;;;;6132929;29;1978;-77
2023/07/07 19:29:19;;;;;;;;;;;31.00;47.50;;;;;;6128232;29;1082;-75
2023/07/07 19:32:21;;;;;;;;;;;30.90;47.70;;;;;;6128584;29;1360;-76
2023/07/07 19:35:23;;;;;;;;;;;30.80;47.80;;;;;;6128771;29;1034;-75
2023/07/07 19:38:26;;;;;;;;;;;30.50;47.80;;;;;;6128091;29;1106;-78
2023/07/07 19:41:31;;;;;;;;;;;30.40;48.10;;;;;;6127051;29;1436;-72
2023/07/07 19:44:33;;;;;;;;;;;30.10;48.30;;;;;;6127891;29;1983;-76
2023/07/07 19:47:35;;;;;;;;;;;29.90;49.10;;;;;;6130505;29;3306;-75
2023/07/07 19:50:38;;;;;;;;;;;29.80;49.10;;;;;;6130632;29;2889;-76
2023/07/07 19:53:40;;;;;;;;;;;29.60;49.40;;;;;;6138198;29;2635;-75
2023/07/07 19:56:43;;;;;;;;;;;29.50;49.10;;;;;;6127560;29;1029;-76
2023/07/07 19:59:45;;;;;;;;;;;29.40;48.00;;;;;;6127425;29;1262;-75
2023/07/07 20:02:47;;;;;;;;;;;29.30;47.10;;;;;;6145118;28;1425;-76
2023/07/07 20:05:49;;;;;;;;;;;29.20;46.90;;;;;;6144718;29;2948;-74
2023/07/07 20:08:50;;;;;;;;;;;29.10;48.20;;;;;;6134651;29;1232;-74
2023/07/07 20:11:53;;;;;;;;;;;29.00;47.60;;;;;;6140634;29;1359;-75
2023/07/07 20:14:58;;;;;;;;;;;28.90;49.80;;;;;;6147187;29;1419;-77
2023/07/07 20:18:00;;;;;;;;;;;28.80;49.10;;;;;;6143824;29;1523;-79
2023/07/07 20:21:02;;;;;;;;;;;28.70;51.00;;;;;;6133926;29;1499;-76
2023/07/07 20:24:06;;;;;;;;;;;28.60;51.30;;;;;;6129397;29;1899;-75
2023/07/07 20:27:11;;;;;;;;;;;28.50;51.20;;;;;;6130950;29;1471;-76
2023/07/07 20:30:18;;;;;;;;;;;28.40;51.10;;;;;;6154885;29;1051;-74
2023/07/07 20:33:21;;;;;;;;;;;28.20;51.00;;;;;;6154507;29;1071;-76
2023/07/07 20:36:23;;;;;;;;;;;28.10;51.60;;;;;;6144130;29;1396;-73
2023/07/07 20:39:25;;;;;;;;;;;27.90;50.50;;;;;;6129993;29;1031;-76
2023/07/07 20:42:28;;;;;;;;;;;27.90;51.30;;;;;;6140683;29;1019;-74
2023/07/07 20:45:30;;;;;;;;;;;27.90;52.40;;;;;;6141335;29;1968;-74
2023/07/07 20:48:31;;;;;;;;;;;27.80;51.00;;;;;;6142502;29;1314;-74
2023/07/07 20:51:33;;;;;;;;;;;27.80;52.00;;;;;;6141353;29;1028;-75
2023/07/07 20:54:35;;;;;;;;;;;27.70;50.90;;;;;;6140321;29;1020;-76
2023/07/07 20:57:38;;;;;;;;;;;27.60;50.50;;;;;;6140166;29;1404;-72
2023/07/07 21:00:43;;;;;;;;;;;27.50;51.40;;;;;;6142540;29;1223;-74
2023/07/07 21:03:46;;;;;;;;;;;27.40;50.80;;;;;;6143352;29;1107;-75
2023/07/07 21:06:48;;;;;;;;;;;27.40;51.40;;;;;;6158647;29;1987;-75
2023/07/07 21:09:50;;;;;;;;;;;27.30;50.30;;;;;;6165291;29;1320;-74
2023/07/07 21:12:54;;;;;;;;;;;27.30;49.40;;;;;;6144804;29;1175;-75
2023/07/07 21:15:57;;;;;;;;;;;27.20;48.00;;;;;;6150164;29;1452;-75
2023/07/07 21:18:59;;;;;;;;;;;27.20;49.50;;;;;;6170476;29;1574;-76
2023/07/07 21:22:00;;;;;;;;;;;27.20;47.80;;;;;;6170588;29;1058;-75
2023/07/07 21:25:02;;;;;;;;;;;27.00;48.40;;;;;;6171577;29;1903;-74
2023/07/07 21:28:05;;;;;;;;;;;26.90;50.50;;;;;;6140795;29;1286;-75
